Torm Horizon — OYNM2 — position and weather

sailwx.info

Track history (hours):
 
Tides and Currents Weather Stations Pressure Air Temp Water Temp Dewpoint Dewpoint Depression Visibility Wind Speed Wind Dir Waves Ship Positions

Torm Horizon

Last reported at 2016-Jul-20 22:33 UTC. Time now 2016-Jul-26 14:03 UTC.
Position S 34°44' W 057°43'.

Length 183 m; draft 7 m.

Type: Ship. MMSI: 220566000.

Date/timePositionNaut miles runAvg speedWind from/ knotsBaromVisibWave heightAir tempDewpointWater temp
2016-Jul-20 22:33S 34°44' W 057°43'5 1.6
2016-Jul-20 19:26S 34°45' W 057°49'0 0.1
2016-Jul-20 18:32S 34°45' W 057°49'0 0.0
2016-Jul-20 17:32S 34°45' W 057°49'0 0.0
2016-Jul-20 14:31S 34°45' W 057°49'0 0.0
2016-Jul-20 12:31S 34°45' W 057°49'0 0.1
2016-Jul-20 11:31S 34°45' W 057°49'0 0.1
2016-Jul-20 10:31S 34°45' W 057°49'0 0.0
2016-Jul-20 09:28S 34°44' W 057°49'0 0.0
2016-Jul-20 08:25S 34°44' W 057°49'0 0.0
2016-Jul-20 07:31S 34°44' W 057°49'0 0.0
2016-Jul-20 06:31S 34°44' W 057°49'2 1.6
2016-Jul-20 05:33S 34°44' W 057°51'1010.1
2016-Jul-20 04:33S 34°35' W 057°56'1211.9
2016-Jul-20 03:33S 34°23' W 057°59'  
2016-Jul-16 20:25S 34°32' W 058°20'910.4
2016-Jul-16 19:33S 34°37' W 058°12'1211.8
2016-Jul-16 18:33S 34°41' W 057°58'8 6.9
2016-Jul-16 17:22S 34°44' W 057°49'0 0.1
2016-Jul-16 16:31S 34°44' W 057°49'0 0.1
2016-Jul-16 15:31S 34°44' W 057°49'0 0.1
2016-Jul-16 14:22S 34°44' W 057°49'0 0.1
2016-Jul-16 13:31S 34°44' W 057°49'0 0.1
2016-Jul-16 12:31S 34°44' W 057°49'0 0.0
2016-Jul-16 10:31S 34°44' W 057°49'0 0.0
2016-Jul-16 09:31S 34°44' W 057°49'0 0.0
2016-Jul-16 08:31S 34°44' W 057°49'0 0.0
2016-Jul-16 07:31S 34°44' W 057°49'0 0.0
2016-Jul-16 04:31S 34°44' W 057°49'0 0.0
2016-Jul-16 03:31S 34°44' W 057°49'0 0.0
2016-Jul-16 02:25S 34°44' W 057°49'0 0.0
2016-Jul-16 01:31S 34°44' W 057°49'0 0.0
2016-Jul-16 00:31S 34°44' W 057°49'0 0.0
2016-Jul-15 23:31S 34°44' W 057°49'0 0.0
2016-Jul-15 22:31S 34°44' W 057°49'0 0.0
2016-Jul-15 21:31S 34°44' W 057°49'0 0.0
2016-Jul-15 20:31S 34°44' W 057°49'0 0.0
2016-Jul-15 19:28S 34°44' W 057°49'0 0.1
2016-Jul-15 18:34S 34°44' W 057°49'0 0.0
2016-Jul-15 17:33S 34°44' W 057°49'0 0.0
2016-Jul-15 16:24S 34°44' W 057°49'0 0.1
2016-Jul-15 15:30S 34°44' W 057°49'0 0.0
2016-Jul-15 14:09S 34°44' W 057°49'0 0.0
2016-Jul-15 13:33S 34°44' W 057°49'0 0.0
2016-Jul-15 12:33S 34°44' W 057°49'0 0.0
2016-Jul-15 11:33S 34°44' W 057°49'0 0.0
2016-Jul-15 10:33S 34°44' W 057°49'0 0.0
2016-Jul-15 09:09S 34°44' W 057°49'0 0.0
2016-Jul-15 08:33S 34°44' W 057°49'0 0.1
2016-Jul-15 07:30S 34°44' W 057°49'  
Track history (hours):
 
Tides and Currents Weather Stations Pressure Air Temp Water Temp Dewpoint Dewpoint Depression Visibility Wind Speed Wind Dir Waves Ship Positions

Torm Horizon

Last reported at 2016-Jul-20 22:33 UTC. Time now 2016-Jul-26 14:03 UTC.
Position S 34°44' W 057°43'.

Length 183 m; draft 7 m.

Type: Ship. MMSI: 220566000.

Date/timePositionNaut miles runAvg speedWind from/ knotsBaromVisibWave heightAir tempDewpointWater temp
2016-Jul-20 22:33S 34°44' W 057°43'5 1.6
2016-Jul-20 19:26S 34°45' W 057°49'0 0.1
2016-Jul-20 18:32S 34°45' W 057°49'0 0.0
2016-Jul-20 17:32S 34°45' W 057°49'0 0.0
2016-Jul-20 14:31S 34°45' W 057°49'0 0.0
2016-Jul-20 12:31S 34°45' W 057°49'0 0.1
2016-Jul-20 11:31S 34°45' W 057°49'0 0.1
2016-Jul-20 10:31S 34°45' W 057°49'0 0.0
2016-Jul-20 09:28S 34°44' W 057°49'0 0.0
2016-Jul-20 08:25S 34°44' W 057°49'0 0.0
2016-Jul-20 07:31S 34°44' W 057°49'0 0.0
2016-Jul-20 06:31S 34°44' W 057°49'2 1.6
2016-Jul-20 05:33S 34°44' W 057°51'1010.1
2016-Jul-20 04:33S 34°35' W 057°56'1211.9
2016-Jul-20 03:33S 34°23' W 057°59'  
2016-Jul-16 20:25S 34°32' W 058°20'910.4
2016-Jul-16 19:33S 34°37' W 058°12'1211.8
2016-Jul-16 18:33S 34°41' W 057°58'8 6.9
2016-Jul-16 17:22S 34°44' W 057°49'0 0.1
2016-Jul-16 16:31S 34°44' W 057°49'0 0.1
2016-Jul-16 15:31S 34°44' W 057°49'0 0.1
2016-Jul-16 14:22S 34°44' W 057°49'0 0.1
2016-Jul-16 13:31S 34°44' W 057°49'0 0.1
2016-Jul-16 12:31S 34°44' W 057°49'0 0.0
2016-Jul-16 10:31S 34°44' W 057°49'0 0.0
2016-Jul-16 09:31S 34°44' W 057°49'0 0.0
2016-Jul-16 08:31S 34°44' W 057°49'0 0.0
2016-Jul-16 07:31S 34°44' W 057°49'0 0.0
2016-Jul-16 04:31S 34°44' W 057°49'0 0.0
2016-Jul-16 03:31S 34°44' W 057°49'0 0.0
2016-Jul-16 02:25S 34°44' W 057°49'0 0.0
2016-Jul-16 01:31S 34°44' W 057°49'0 0.0
2016-Jul-16 00:31S 34°44' W 057°49'0 0.0
2016-Jul-15 23:31S 34°44' W 057°49'0 0.0
2016-Jul-15 22:31S 34°44' W 057°49'0 0.0
2016-Jul-15 21:31S 34°44' W 057°49'0 0.0
2016-Jul-15 20:31S 34°44' W 057°49'0 0.0
2016-Jul-15 19:28S 34°44' W 057°49'0 0.1
2016-Jul-15 18:34S 34°44' W 057°49'0 0.0
2016-Jul-15 17:33S 34°44' W 057°49'0 0.0
2016-Jul-15 16:24S 34°44' W 057°49'0 0.1
2016-Jul-15 15:30S 34°44' W 057°49'0 0.0
2016-Jul-15 14:09S 34°44' W 057°49'0 0.0
2016-Jul-15 13:33S 34°44' W 057°49'0 0.0
2016-Jul-15 12:33S 34°44' W 057°49'0 0.0
2016-Jul-15 11:33S 34°44' W 057°49'0 0.0
2016-Jul-15 10:33S 34°44' W 057°49'0 0.0
2016-Jul-15 09:09S 34°44' W 057°49'0 0.0
2016-Jul-15 08:33S 34°44' W 057°49'0 0.1
2016-Jul-15 07:30S 34°44' W 057°49'  

Dump ship's entire track history